sensor_id;sensor_type;location;lat;lon;timestamp;P1;durP1;ratioP1;P2;durP2;ratioP2
56541;SDS011;42438;53.174;6.730;2024-02-14T00:00:28;8.90;;;5.80;;
56541;SDS011;42438;53.174;6.730;2024-02-14T00:02:59;11.00;;;5.75;;
56541;SDS011;42438;53.174;6.730;2024-02-14T00:05:29;11.02;;;5.97;;
56541;SDS011;42438;53.174;6.730;2024-02-14T00:08:00;10.38;;;5.82;;
56541;SDS011;42438;53.174;6.730;2024-02-14T00:10:31;10.57;;;5.65;;
56541;SDS011;42438;53.174;6.730;2024-02-14T00:13:01;10.00;;;5.43;;
56541;SDS011;42438;53.174;6.730;2024-02-14T00:15:32;10.27;;;5.95;;
56541;SDS011;42438;53.174;6.730;2024-02-14T00:18:03;11.38;;;6.07;;
56541;SDS011;42438;53.174;6.730;2024-02-14T00:20:34;13.55;;;6.53;;
56541;SDS011;42438;53.174;6.730;2024-02-14T00:23:06;10.43;;;5.55;;
56541;SDS011;42438;53.174;6.730;2024-02-14T00:25:36;11.13;;;6.05;;
56541;SDS011;42438;53.174;6.730;2024-02-14T00:28:07;9.40;;;6.07;;
56541;SDS011;42438;53.174;6.730;2024-02-14T00:30:38;9.52;;;5.60;;
56541;SDS011;42438;53.174;6.730;2024-02-14T00:33:08;11.52;;;5.28;;
56541;SDS011;42438;53.174;6.730;2024-02-14T00:35:39;11.05;;;6.18;;
56541;SDS011;42438;53.174;6.730;2024-02-14T00:38:10;13.65;;;6.78;;
56541;SDS011;42438;53.174;6.730;2024-02-14T00:40:40;11.25;;;5.93;;
56541;SDS011;42438;53.174;6.730;2024-02-14T00:43:11;11.55;;;6.40;;
56541;SDS011;42438;53.174;6.730;2024-02-14T00:45:41;11.63;;;6.60;;
56541;SDS011;42438;53.174;6.730;2024-02-14T00:48:12;11.50;;;6.63;;
56541;SDS011;42438;53.174;6.730;2024-02-14T00:50:43;10.07;;;6.22;;
56541;SDS011;42438;53.174;6.730;2024-02-14T00:53:13;10.57;;;6.50;;
56541;SDS011;42438;53.174;6.730;2024-02-14T00:55:44;10.95;;;6.95;;
56541;SDS011;42438;53.174;6.730;2024-02-14T00:58:15;11.95;;;6.90;;
56541;SDS011;42438;53.174;6.730;2024-02-14T01:00:45;11.13;;;7.13;;
56541;SDS011;42438;53.174;6.730;2024-02-14T01:03:16;11.90;;;6.72;;
56541;SDS011;42438;53.174;6.730;2024-02-14T01:05:47;10.75;;;6.10;;
56541;SDS011;42438;53.174;6.730;2024-02-14T01:08:18;10.25;;;6.43;;
56541;SDS011;42438;53.174;6.730;2024-02-14T01:10:48;10.10;;;6.32;;
56541;SDS011;42438;53.174;6.730;2024-02-14T01:13:21;10.40;;;6.78;;
56541;SDS011;42438;53.174;6.730;2024-02-14T01:15:52;11.20;;;6.85;;
56541;SDS011;42438;53.174;6.730;2024-02-14T01:18:23;11.57;;;6.55;;
56541;SDS011;42438;53.174;6.730;2024-02-14T01:20:54;9.82;;;6.75;;
56541;SDS011;42438;53.174;6.730;2024-02-14T01:23:24;10.45;;;6.20;;
56541;SDS011;42438;53.174;6.730;2024-02-14T01:25:55;9.13;;;6.13;;
56541;SDS011;42438;53.174;6.730;2024-02-14T01:28:26;10.70;;;5.55;;
56541;SDS011;42438;53.174;6.730;2024-02-14T01:30:57;10.50;;;6.20;;
56541;SDS011;42438;53.174;6.730;2024-02-14T01:33:27;10.85;;;6.13;;
56541;SDS011;42438;53.174;6.730;2024-02-14T01:36:00;7.78;;;5.20;;
56541;SDS011;42438;53.174;6.730;2024-02-14T01:38:31;9.63;;;5.95;;
56541;SDS011;42438;53.174;6.730;2024-02-14T01:41:05;8.05;;;5.43;;
56541;SDS011;42438;53.174;6.730;2024-02-14T01:43:36;9.38;;;5.80;;
56541;SDS011;42438;53.174;6.730;2024-02-14T01:46:07;8.63;;;5.63;;
56541;SDS011;42438;53.174;6.730;2024-02-14T01:48:38;7.82;;;5.10;;
56541;SDS011;42438;53.174;6.730;2024-02-14T01:51:11;8.10;;;5.35;;
56541;SDS011;42438;53.174;6.730;2024-02-14T01:53:47;9.80;;;5.63;;
56541;SDS011;42438;53.174;6.730;2024-02-14T01:56:18;7.53;;;5.30;;
56541;SDS011;42438;53.174;6.730;2024-02-14T01:58:48;7.35;;;4.82;;
56541;SDS011;42438;53.174;6.730;2024-02-14T02:01:20;8.20;;;5.30;;
56541;SDS011;42438;53.174;6.730;2024-02-14T02:03:53;7.00;;;4.72;;
56541;SDS011;42438;53.174;6.730;2024-02-14T02:06:25;6.90;;;4.50;;
56541;SDS011;42438;53.174;6.730;2024-02-14T02:08:56;7.90;;;4.50;;
56541;SDS011;42438;53.174;6.730;2024-02-14T02:11:27;6.50;;;4.45;;
56541;SDS011;42438;53.174;6.730;2024-02-14T02:13:58;8.18;;;5.32;;
56541;SDS011;42438;53.174;6.730;2024-02-14T02:16:28;7.00;;;4.65;;
56541;SDS011;42438;53.174;6.730;2024-02-14T02:18:59;6.68;;;4.63;;
56541;SDS011;42438;53.174;6.730;2024-02-14T02:21:29;6.68;;;4.63;;
56541;SDS011;42438;53.174;6.730;2024-02-14T02:24:00;7.05;;;4.18;;
56541;SDS011;42438;53.174;6.730;2024-02-14T02:26:31;7.88;;;4.38;;
56541;SDS011;42438;53.174;6.730;2024-02-14T02:29:02;6.63;;;4.25;;
56541;SDS011;42438;53.174;6.730;2024-02-14T02:31:32;5.95;;;4.25;;
56541;SDS011;42438;53.174;6.730;2024-02-14T02:34:03;9.65;;;4.65;;
56541;SDS011;42438;53.174;6.730;2024-02-14T02:36:34;6.13;;;4.20;;
56541;SDS011;42438;53.174;6.730;2024-02-14T02:39:06;6.28;;;3.90;;
56541;SDS011;42438;53.174;6.730;2024-02-14T02:41:37;7.20;;;4.07;;
56541;SDS011;42438;53.174;6.730;2024-02-14T02:44:08;6.85;;;4.43;;
56541;SDS011;42438;53.174;6.730;2024-02-14T02:46:38;7.70;;;4.38;;
56541;SDS011;42438;53.174;6.730;2024-02-14T02:49:09;6.30;;;4.10;;
56541;SDS011;42438;53.174;6.730;2024-02-14T02:51:40;6.70;;;4.32;;
56541;SDS011;42438;53.174;6.730;2024-02-14T02:54:10;6.95;;;4.68;;
56541;SDS011;42438;53.174;6.730;2024-02-14T02:56:41;7.25;;;4.15;;
56541;SDS011;42438;53.174;6.730;2024-02-14T02:59:12;8.40;;;4.78;;
56541;SDS011;42438;53.174;6.730;2024-02-14T03:01:43;7.35;;;4.40;;
56541;SDS011;42438;53.174;6.730;2024-02-14T03:04:14;6.63;;;4.63;;
56541;SDS011;42438;53.174;6.730;2024-02-14T03:06:45;7.05;;;4.50;;
56541;SDS011;42438;53.174;6.730;2024-02-14T03:09:16;6.28;;;4.38;;
56541;SDS011;42438;53.174;6.730;2024-02-14T03:11:48;7.28;;;4.82;;
56541;SDS011;42438;53.174;6.730;2024-02-14T03:14:19;7.35;;;3.92;;
56541;SDS011;42438;53.174;6.730;2024-02-14T03:16:49;6.43;;;3.80;;
56541;SDS011;42438;53.174;6.730;2024-02-14T03:19:21;6.03;;;4.03;;
56541;SDS011;42438;53.174;6.730;2024-02-14T03:21:55;7.50;;;4.05;;
56541;SDS011;42438;53.174;6.730;2024-02-14T03:24:26;5.63;;;4.00;;
56541;SDS011;42438;53.174;6.730;2024-02-14T03:26:57;6.30;;;3.90;;
56541;SDS011;42438;53.174;6.730;2024-02-14T03:29:27;6.13;;;3.70;;
56541;SDS011;42438;53.174;6.730;2024-02-14T03:31:58;5.07;;;3.45;;
56541;SDS011;42438;53.174;6.730;2024-02-14T03:34:33;6.00;;;3.97;;
56541;SDS011;42438;53.174;6.730;2024-02-14T03:37:05;6.70;;;3.67;;
56541;SDS011;42438;53.174;6.730;2024-02-14T03:39:37;6.07;;;3.40;;
56541;SDS011;42438;53.174;6.730;2024-02-14T03:42:07;5.85;;;3.33;;
56541;SDS011;42438;53.174;6.730;2024-02-14T03:44:38;5.65;;;3.28;;
56541;SDS011;42438;53.174;6.730;2024-02-14T03:47:09;5.50;;;3.97;;
56541;SDS011;42438;53.174;6.730;2024-02-14T03:49:40;4.63;;;2.88;;
56541;SDS011;42438;53.174;6.730;2024-02-14T03:52:11;6.38;;;3.22;;
56541;SDS011;42438;53.174;6.730;2024-02-14T03:54:42;6.40;;;3.10;;
56541;SDS011;42438;53.174;6.730;2024-02-14T03:57:13;4.63;;;2.88;;
56541;SDS011;42438;53.174;6.730;2024-02-14T03:59:44;4.90;;;2.92;;
56541;SDS011;42438;53.174;6.730;2024-02-14T04:02:16;5.03;;;3.03;;
56541;SDS011;42438;53.174;6.730;2024-02-14T04:04:47;5.68;;;3.40;;
56541;SDS011;42438;53.174;6.730;2024-02-14T04:07:17;4.95;;;3.20;;
56541;SDS011;42438;53.174;6.730;2024-02-14T04:09:48;5.95;;;3.30;;
56541;SDS011;42438;53.174;6.730;2024-02-14T04:12:19;5.32;;;3.25;;
56541;SDS011;42438;53.174;6.730;2024-02-14T04:14:49;4.82;;;2.92;;
56541;SDS011;42438;53.174;6.730;2024-02-14T04:17:20;5.32;;;3.15;;
56541;SDS011;42438;53.174;6.730;2024-02-14T04:19:50;5.00;;;3.10;;
56541;SDS011;42438;53.174;6.730;2024-02-14T04:22:21;6.88;;;3.50;;
56541;SDS011;42438;53.174;6.730;2024-02-14T04:24:52;6.00;;;3.35;;
56541;SDS011;42438;53.174;6.730;2024-02-14T04:27:22;5.57;;;3.50;;
56541;SDS011;42438;53.174;6.730;2024-02-14T04:29:53;6.15;;;3.42;;
56541;SDS011;42438;53.174;6.730;2024-02-14T04:32:24;5.47;;;3.20;;
56541;SDS011;42438;53.174;6.730;2024-02-14T04:34:55;5.88;;;3.17;;
56541;SDS011;42438;53.174;6.730;2024-02-14T04:37:26;6.38;;;3.58;;
56541;SDS011;42438;53.174;6.730;2024-02-14T04:39:57;6.68;;;3.30;;
56541;SDS011;42438;53.174;6.730;2024-02-14T04:42:27;5.85;;;3.05;;
56541;SDS011;42438;53.174;6.730;2024-02-14T04:44:58;5.15;;;3.00;;
56541;SDS011;42438;53.174;6.730;2024-02-14T04:47:29;5.85;;;2.80;;
56541;SDS011;42438;53.174;6.730;2024-02-14T04:49:59;6.40;;;3.25;;
56541;SDS011;42438;53.174;6.730;2024-02-14T04:52:34;5.85;;;3.35;;
56541;SDS011;42438;53.174;6.730;2024-02-14T04:55:04;4.68;;;3.17;;
56541;SDS011;42438;53.174;6.730;2024-02-14T04:57:35;5.57;;;2.97;;
56541;SDS011;42438;53.174;6.730;2024-02-14T05:00:07;5.25;;;3.20;;
56541;SDS011;42438;53.174;6.730;2024-02-14T05:02:39;5.47;;;3.20;;
56541;SDS011;42438;53.174;6.730;2024-02-14T05:05:11;5.95;;;3.25;;
56541;SDS011;42438;53.174;6.730;2024-02-14T05:07:41;5.07;;;2.97;;
56541;SDS011;42438;53.174;6.730;2024-02-14T05:10:12;6.05;;;3.25;;
56541;SDS011;42438;53.174;6.730;2024-02-14T05:12:43;5.05;;;2.95;;
56541;SDS011;42438;53.174;6.730;2024-02-14T05:15:15;5.78;;;3.10;;
56541;SDS011;42438;53.174;6.730;2024-02-14T05:17:46;6.20;;;3.00;;
56541;SDS011;42438;53.174;6.730;2024-02-14T05:20:16;6.00;;;3.30;;
56541;SDS011;42438;53.174;6.730;2024-02-14T05:22:47;7.32;;;3.83;;
56541;SDS011;42438;53.174;6.730;2024-02-14T05:25:18;7.47;;;4.00;;
56541;SDS011;42438;53.174;6.730;2024-02-14T05:27:49;6.93;;;3.70;;
56541;SDS011;42438;53.174;6.730;2024-02-14T05:30:19;6.40;;;3.63;;
56541;SDS011;42438;53.174;6.730;2024-02-14T05:32:50;6.05;;;3.67;;
56541;SDS011;42438;53.174;6.730;2024-02-14T05:35:22;6.07;;;3.40;;
56541;SDS011;42438;53.174;6.730;2024-02-14T05:37:53;5.65;;;3.67;;
56541;SDS011;42438;53.174;6.730;2024-02-14T05:40:24;7.22;;;3.95;;
56541;SDS011;42438;53.174;6.730;2024-02-14T05:42:55;7.07;;;3.80;;
56541;SDS011;42438;53.174;6.730;2024-02-14T05:45:26;6.78;;;3.50;;
56541;SDS011;42438;53.174;6.730;2024-02-14T05:47:57;6.63;;;3.28;;
56541;SDS011;42438;53.174;6.730;2024-02-14T05:50:28;6.40;;;3.53;;
56541;SDS011;42438;53.174;6.730;2024-02-14T05:52:59;5.75;;;3.60;;
56541;SDS011;42438;53.174;6.730;2024-02-14T05:55:30;7.05;;;3.70;;
56541;SDS011;42438;53.174;6.730;2024-02-14T05:58:01;5.25;;;3.40;;
56541;SDS011;42438;53.174;6.730;2024-02-14T06:00:31;5.63;;;3.60;;
56541;SDS011;42438;53.174;6.730;2024-02-14T06:03:02;6.82;;;4.00;;
56541;SDS011;42438;53.174;6.730;2024-02-14T06:05:35;7.50;;;3.60;;
56541;SDS011;42438;53.174;6.730;2024-02-14T06:08:06;7.28;;;4.07;;
56541;SDS011;42438;53.174;6.730;2024-02-14T06:10:36;6.40;;;3.55;;
56541;SDS011;42438;53.174;6.730;2024-02-14T06:13:08;6.25;;;3.90;;
56541;SDS011;42438;53.174;6.730;2024-02-14T06:15:39;7.35;;;4.28;;
56541;SDS011;42438;53.174;6.730;2024-02-14T06:18:10;5.97;;;3.25;;
56541;SDS011;42438;53.174;6.730;2024-02-14T06:20:41;6.45;;;3.88;;
56541;SDS011;42438;53.174;6.730;2024-02-14T06:23:12;9.63;;;4.00;;
56541;SDS011;42438;53.174;6.730;2024-02-14T06:25:43;7.38;;;3.80;;
56541;SDS011;42438;53.174;6.730;2024-02-14T06:28:13;7.78;;;3.70;;
56541;SDS011;42438;53.174;6.730;2024-02-14T06:30:44;6.78;;;3.80;;
56541;SDS011;42438;53.174;6.730;2024-02-14T06:33:15;5.93;;;3.65;;
56541;SDS011;42438;53.174;6.730;2024-02-14T06:35:46;6.97;;;3.83;;
56541;SDS011;42438;53.174;6.730;2024-02-14T06:38:16;6.90;;;4.00;;
56541;SDS011;42438;53.174;6.730;2024-02-14T06:40:47;10.60;;;4.43;;
56541;SDS011;42438;53.174;6.730;2024-02-14T06:43:18;10.95;;;4.75;;
56541;SDS011;42438;53.174;6.730;2024-02-14T06:45:49;11.25;;;5.13;;
56541;SDS011;42438;53.174;6.730;2024-02-14T06:48:20;10.95;;;5.40;;
56541;SDS011;42438;53.174;6.730;2024-02-14T06:53:24;13.75;;;5.75;;
56541;SDS011;42438;53.174;6.730;2024-02-14T06:55:55;20.60;;;6.38;;
56541;SDS011;42438;53.174;6.730;2024-02-14T06:58:25;15.68;;;6.30;;
56541;SDS011;42438;53.174;6.730;2024-02-14T07:00:56;17.42;;;6.10;;
56541;SDS011;42438;53.174;6.730;2024-02-14T07:03:27;22.45;;;6.60;;
56541;SDS011;42438;53.174;6.730;2024-02-14T07:05:57;21.10;;;6.22;;
56541;SDS011;42438;53.174;6.730;2024-02-14T07:08:28;17.35;;;6.32;;
56541;SDS011;42438;53.174;6.730;2024-02-14T07:10:59;16.02;;;6.43;;
56541;SDS011;42438;53.174;6.730;2024-02-14T07:13:29;20.45;;;6.43;;
56541;SDS011;42438;53.174;6.730;2024-02-14T07:16:00;27.30;;;7.55;;
56541;SDS011;42438;53.174;6.730;2024-02-14T07:18:31;15.93;;;6.10;;
56541;SDS011;42438;53.174;6.730;2024-02-14T07:21:01;19.13;;;6.40;;
56541;SDS011;42438;53.174;6.730;2024-02-14T07:23:35;22.08;;;6.20;;
56541;SDS011;42438;53.174;6.730;2024-02-14T07:26:06;18.20;;;6.47;;
56541;SDS011;42438;53.174;6.730;2024-02-14T07:28:37;19.63;;;6.70;;
56541;SDS011;42438;53.174;6.730;2024-02-14T07:31:07;25.42;;;7.18;;
56541;SDS011;42438;53.174;6.730;2024-02-14T07:33:38;32.85;;;7.50;;
56541;SDS011;42438;53.174;6.730;2024-02-14T07:36:09;27.58;;;6.95;;
56541;SDS011;42438;53.174;6.730;2024-02-14T07:38:39;33.08;;;7.35;;
56541;SDS011;42438;53.174;6.730;2024-02-14T07:41:12;26.38;;;7.03;;
56541;SDS011;42438;53.174;6.730;2024-02-14T07:43:43;26.52;;;6.78;;
56541;SDS011;42438;53.174;6.730;2024-02-14T07:46:19;24.42;;;7.10;;
56541;SDS011;42438;53.174;6.730;2024-02-14T07:48:52;33.08;;;7.65;;
56541;SDS011;42438;53.174;6.730;2024-02-14T07:51:23;36.60;;;8.05;;
56541;SDS011;42438;53.174;6.730;2024-02-14T07:53:53;29.83;;;7.93;;
56541;SDS011;42438;53.174;6.730;2024-02-14T07:56:24;27.75;;;8.02;;
56541;SDS011;42438;53.174;6.730;2024-02-14T07:58:54;28.58;;;8.25;;
56541;SDS011;42438;53.174;6.730;2024-02-14T08:01:25;29.02;;;8.40;;
56541;SDS011;42438;53.174;6.730;2024-02-14T08:03:56;33.38;;;9.38;;
56541;SDS011;42438;53.174;6.730;2024-02-14T08:06:27;37.13;;;8.55;;
56541;SDS011;42438;53.174;6.730;2024-02-14T08:08:57;37.60;;;8.77;;
56541;SDS011;42438;53.174;6.730;2024-02-14T08:11:32;27.45;;;8.15;;
56541;SDS011;42438;53.174;6.730;2024-02-14T08:14:02;37.15;;;10.10;;
56541;SDS011;42438;53.174;6.730;2024-02-14T08:16:33;36.38;;;9.52;;
56541;SDS011;42438;53.174;6.730;2024-02-14T08:19:04;30.58;;;9.75;;
56541;SDS011;42438;53.174;6.730;2024-02-14T08:21:34;36.67;;;8.85;;
56541;SDS011;42438;53.174;6.730;2024-02-14T08:24:06;31.23;;;9.80;;
56541;SDS011;42438;53.174;6.730;2024-02-14T08:26:36;32.92;;;8.88;;
56541;SDS011;42438;53.174;6.730;2024-02-14T08:29:07;28.75;;;8.40;;
56541;SDS011;42438;53.174;6.730;2024-02-14T08:31:40;25.17;;;8.60;;
56541;SDS011;42438;53.174;6.730;2024-02-14T08:34:10;40.42;;;10.75;;
56541;SDS011;42438;53.174;6.730;2024-02-14T08:36:41;28.63;;;7.90;;
56541;SDS011;42438;53.174;6.730;2024-02-14T08:39:12;43.60;;;11.15;;
56541;SDS011;42438;53.174;6.730;2024-02-14T08:41:43;26.27;;;9.13;;
56541;SDS011;42438;53.174;6.730;2024-02-14T08:44:15;26.02;;;9.70;;
56541;SDS011;42438;53.174;6.730;2024-02-14T08:46:45;34.40;;;9.60;;
56541;SDS011;42438;53.174;6.730;2024-02-14T08:49:18;30.25;;;9.70;;
56541;SDS011;42438;53.174;6.730;2024-02-14T08:51:49;31.80;;;9.13;;
56541;SDS011;42438;53.174;6.730;2024-02-14T08:54:20;25.40;;;7.68;;
56541;SDS011;42438;53.174;6.730;2024-02-14T08:56:51;20.88;;;8.63;;
56541;SDS011;42438;53.174;6.730;2024-02-14T08:59:25;27.20;;;9.23;;
56541;SDS011;42438;53.174;6.730;2024-02-14T09:01:56;20.55;;;8.77;;
56541;SDS011;42438;53.174;6.730;2024-02-14T09:04:27;21.27;;;8.00;;
56541;SDS011;42438;53.174;6.730;2024-02-14T09:06:58;16.42;;;7.13;;
56541;SDS011;42438;53.174;6.730;2024-02-14T09:09:28;20.40;;;7.70;;
56541;SDS011;42438;53.174;6.730;2024-02-14T09:11:59;17.40;;;8.05;;
56541;SDS011;42438;53.174;6.730;2024-02-14T09:14:32;21.13;;;7.90;;
56541;SDS011;42438;53.174;6.730;2024-02-14T09:17:03;19.15;;;7.97;;
56541;SDS011;42438;53.174;6.730;2024-02-14T09:19:34;22.20;;;7.82;;
56541;SDS011;42438;53.174;6.730;2024-02-14T09:22:05;17.13;;;6.82;;
56541;SDS011;42438;53.174;6.730;2024-02-14T09:24:36;21.15;;;8.57;;
56541;SDS011;42438;53.174;6.730;2024-02-14T09:27:07;20.02;;;8.05;;
56541;SDS011;42438;53.174;6.730;2024-02-14T09:29:37;21.65;;;8.68;;
56541;SDS011;42438;53.174;6.730;2024-02-14T09:32:08;22.58;;;7.78;;
56541;SDS011;42438;53.174;6.730;2024-02-14T09:34:39;23.27;;;7.70;;
56541;SDS011;42438;53.174;6.730;2024-02-14T09:37:09;22.52;;;8.38;;
56541;SDS011;42438;53.174;6.730;2024-02-14T09:39:40;16.50;;;7.20;;
56541;SDS011;42438;53.174;6.730;2024-02-14T09:42:13;20.70;;;6.93;;
56541;SDS011;42438;53.174;6.730;2024-02-14T09:47:20;19.55;;;6.95;;
56541;SDS011;42438;53.174;6.730;2024-02-14T09:49:52;19.88;;;7.38;;
56541;SDS011;42438;53.174;6.730;2024-02-14T09:52:23;21.45;;;6.75;;
56541;SDS011;42438;53.174;6.730;2024-02-14T09:54:54;21.13;;;6.97;;
56541;SDS011;42438;53.174;6.730;2024-02-14T09:57:25;25.85;;;6.97;;
56541;SDS011;42438;53.174;6.730;2024-02-14T09:59:59;19.60;;;6.82;;
56541;SDS011;42438;53.174;6.730;2024-02-14T10:02:35;17.00;;;7.05;;
56541;SDS011;42438;53.174;6.730;2024-02-14T10:05:06;20.38;;;6.72;;
56541;SDS011;42438;53.174;6.730;2024-02-14T10:07:41;15.40;;;6.25;;
56541;SDS011;42438;53.174;6.730;2024-02-14T10:10:12;15.65;;;5.25;;
56541;SDS011;42438;53.174;6.730;2024-02-14T10:12:44;13.60;;;5.75;;
56541;SDS011;42438;53.174;6.730;2024-02-14T10:15:15;19.40;;;6.18;;
56541;SDS011;42438;53.174;6.730;2024-02-14T10:17:45;19.63;;;6.53;;
56541;SDS011;42438;53.174;6.730;2024-02-14T10:20:16;16.30;;;6.28;;
56541;SDS011;42438;53.174;6.730;2024-02-14T10:22:47;20.35;;;6.15;;
56541;SDS011;42438;53.174;6.730;2024-02-14T10:25:18;18.60;;;6.45;;
56541;SDS011;42438;53.174;6.730;2024-02-14T10:27:49;22.38;;;6.85;;
56541;SDS011;42438;53.174;6.730;2024-02-14T10:30:19;23.08;;;6.97;;
56541;SDS011;42438;53.174;6.730;2024-02-14T10:32:51;17.80;;;7.53;;
56541;SDS011;42438;53.174;6.730;2024-02-14T10:35:22;18.58;;;7.25;;
56541;SDS011;42438;53.174;6.730;2024-02-14T10:37:53;17.90;;;7.05;;
56541;SDS011;42438;53.174;6.730;2024-02-14T10:40:31;15.52;;;6.95;;
56541;SDS011;42438;53.174;6.730;2024-02-14T10:43:05;13.40;;;5.70;;
56541;SDS011;42438;53.174;6.730;2024-02-14T10:48:09;11.25;;;5.22;;
56541;SDS011;42438;53.174;6.730;2024-02-14T10:50:41;8.52;;;4.35;;
56541;SDS011;42438;53.174;6.730;2024-02-14T10:53:14;11.60;;;5.65;;
56541;SDS011;42438;53.174;6.730;2024-02-14T10:55:47;9.13;;;4.40;;
56541;SDS011;42438;53.174;6.730;2024-02-14T10:58:19;8.40;;;4.60;;
56541;SDS011;42438;53.174;6.730;2024-02-14T11:00:51;9.48;;;3.90;;
56541;SDS011;42438;53.174;6.730;2024-02-14T11:03:22;9.68;;;4.90;;
56541;SDS011;42438;53.174;6.730;2024-02-14T11:05:53;10.40;;;4.85;;
56541;SDS011;42438;53.174;6.730;2024-02-14T11:08:30;10.23;;;3.75;;
56541;SDS011;42438;53.174;6.730;2024-02-14T11:11:02;7.60;;;3.22;;
56541;SDS011;42438;53.174;6.730;2024-02-14T11:13:35;6.10;;;3.40;;
56541;SDS011;42438;53.174;6.730;2024-02-14T11:16:08;7.30;;;3.73;;
56541;SDS011;42438;53.174;6.730;2024-02-14T11:18:39;7.43;;;3.22;;
56541;SDS011;42438;53.174;6.730;2024-02-14T11:21:16;5.93;;;3.20;;
56541;SDS011;42438;53.174;6.730;2024-02-14T11:23:53;8.88;;;3.83;;
56541;SDS011;42438;53.174;6.730;2024-02-14T11:26:37;6.82;;;4.43;;
56541;SDS011;42438;53.174;6.730;2024-02-14T11:29:17;9.88;;;4.95;;
56541;SDS011;42438;53.174;6.730;2024-02-14T11:31:56;8.73;;;5.28;;
56541;SDS011;42438;53.174;6.730;2024-02-14T11:34:28;9.40;;;5.35;;
56541;SDS011;42438;53.174;6.730;2024-02-14T11:37:03;9.32;;;5.25;;
56541;SDS011;42438;53.174;6.730;2024-02-14T11:39:35;11.50;;;5.65;;
56541;SDS011;42438;53.174;6.730;2024-02-14T11:42:06;11.48;;;5.50;;
56541;SDS011;42438;53.174;6.730;2024-02-14T11:44:39;11.38;;;5.20;;
56541;SDS011;42438;53.174;6.730;2024-02-14T11:47:12;8.68;;;3.97;;
56541;SDS011;42438;53.174;6.730;2024-02-14T11:49:43;8.07;;;4.00;;
56541;SDS011;42438;53.174;6.730;2024-02-14T11:52:14;6.63;;;3.58;;
56541;SDS011;42438;53.174;6.730;2024-02-14T11:54:46;7.32;;;3.70;;
56541;SDS011;42438;53.174;6.730;2024-02-14T11:57:19;5.72;;;3.20;;
56541;SDS011;42438;53.174;6.730;2024-02-14T11:59:49;6.07;;;3.58;;
56541;SDS011;42438;53.174;6.730;2024-02-14T12:02:22;6.60;;;3.60;;
56541;SDS011;42438;53.174;6.730;2024-02-14T12:04:53;8.15;;;3.70;;
56541;SDS011;42438;53.174;6.730;2024-02-14T12:07:25;9.55;;;3.22;;
56541;SDS011;42438;53.174;6.730;2024-02-14T12:09:56;7.55;;;3.28;;
56541;SDS011;42438;53.174;6.730;2024-02-14T12:12:27;5.85;;;3.58;;
56541;SDS011;42438;53.174;6.730;2024-02-14T12:15:00;6.03;;;3.40;;
56541;SDS011;42438;53.174;6.730;2024-02-14T12:17:31;5.95;;;3.20;;
56541;SDS011;42438;53.174;6.730;2024-02-14T12:20:05;6.60;;;3.45;;
56541;SDS011;42438;53.174;6.730;2024-02-14T12:22:40;6.70;;;3.67;;
56541;SDS011;42438;53.174;6.730;2024-02-14T12:25:10;7.72;;;3.83;;
56541;SDS011;42438;53.174;6.730;2024-02-14T12:27:41;7.20;;;3.83;;
56541;SDS011;42438;53.174;6.730;2024-02-14T12:30:12;6.95;;;4.05;;
56541;SDS011;42438;53.174;6.730;2024-02-14T12:32:43;7.60;;;4.07;;
56541;SDS011;42438;53.174;6.730;2024-02-14T12:35:13;8.23;;;4.28;;
56541;SDS011;42438;53.174;6.730;2024-02-14T12:37:44;7.57;;;4.22;;
56541;SDS011;42438;53.174;6.730;2024-02-14T12:40:15;7.40;;;4.65;;
56541;SDS011;42438;53.174;6.730;2024-02-14T12:42:46;9.30;;;5.47;;
56541;SDS011;42438;53.174;6.730;2024-02-14T12:45:17;9.95;;;5.95;;
56541;SDS011;42438;53.174;6.730;2024-02-14T12:47:48;9.75;;;6.15;;
56541;SDS011;42438;53.174;6.730;2024-02-14T12:50:19;10.68;;;6.05;;
56541;SDS011;42438;53.174;6.730;2024-02-14T12:52:50;9.30;;;6.45;;
56541;SDS011;42438;53.174;6.730;2024-02-14T12:55:21;11.10;;;6.32;;
56541;SDS011;42438;53.174;6.730;2024-02-14T12:57:56;13.38;;;7.03;;
56541;SDS011;42438;53.174;6.730;2024-02-14T13:00:27;11.32;;;6.40;;
56541;SDS011;42438;53.174;6.730;2024-02-14T13:02:59;9.93;;;6.55;;
56541;SDS011;42438;53.174;6.730;2024-02-14T13:05:30;10.88;;;6.95;;
56541;SDS011;42438;53.174;6.730;2024-02-14T13:08:01;10.57;;;6.30;;
56541;SDS011;42438;53.174;6.730;2024-02-14T13:10:33;10.80;;;6.47;;
56541;SDS011;42438;53.174;6.730;2024-02-14T13:13:04;9.50;;;6.07;;
56541;SDS011;42438;53.174;6.730;2024-02-14T13:15:35;9.40;;;6.78;;
56541;SDS011;42438;53.174;6.730;2024-02-14T13:18:06;10.90;;;5.93;;
56541;SDS011;42438;53.174;6.730;2024-02-14T13:20:37;10.18;;;6.28;;
56541;SDS011;42438;53.174;6.730;2024-02-14T13:23:08;10.60;;;6.00;;
56541;SDS011;42438;53.174;6.730;2024-02-14T13:25:39;8.40;;;5.45;;
56541;SDS011;42438;53.174;6.730;2024-02-14T13:28:11;8.45;;;5.80;;
56541;SDS011;42438;53.174;6.730;2024-02-14T13:30:41;9.57;;;6.10;;
56541;SDS011;42438;53.174;6.730;2024-02-14T13:33:13;9.75;;;4.90;;
56541;SDS011;42438;53.174;6.730;2024-02-14T13:35:44;8.43;;;5.28;;
56541;SDS011;42438;53.174;6.730;2024-02-14T13:38:14;7.57;;;4.97;;
56541;SDS011;42438;53.174;6.730;2024-02-14T13:40:46;8.80;;;5.18;;
56541;SDS011;42438;53.174;6.730;2024-02-14T13:43:17;10.18;;;6.10;;
56541;SDS011;42438;53.174;6.730;2024-02-14T13:45:47;9.70;;;5.43;;
56541;SDS011;42438;53.174;6.730;2024-02-14T13:48:20;8.02;;;5.30;;
56541;SDS011;42438;53.174;6.730;2024-02-14T13:50:50;8.85;;;5.55;;
56541;SDS011;42438;53.174;6.730;2024-02-14T13:53:21;12.43;;;5.93;;
56541;SDS011;42438;53.174;6.730;2024-02-14T13:55:52;8.90;;;5.10;;
56541;SDS011;42438;53.174;6.730;2024-02-14T13:58:23;9.20;;;5.40;;
56541;SDS011;42438;53.174;6.730;2024-02-14T14:00:54;8.55;;;5.25;;
56541;SDS011;42438;53.174;6.730;2024-02-14T14:03:25;10.05;;;5.82;;
56541;SDS011;42438;53.174;6.730;2024-02-14T14:05:57;12.38;;;6.10;;
56541;SDS011;42438;53.174;6.730;2024-02-14T14:08:27;11.95;;;6.18;;
56541;SDS011;42438;53.174;6.730;2024-02-14T14:10:58;12.10;;;6.90;;
56541;SDS011;42438;53.174;6.730;2024-02-14T14:13:29;10.45;;;6.88;;
56541;SDS011;42438;53.174;6.730;2024-02-14T14:16:03;12.48;;;7.18;;
56541;SDS011;42438;53.174;6.730;2024-02-14T14:18:35;12.30;;;6.97;;
56541;SDS011;42438;53.174;6.730;2024-02-14T14:21:05;14.93;;;7.47;;
56541;SDS011;42438;53.174;6.730;2024-02-14T14:23:36;14.20;;;8.48;;
56541;SDS011;42438;53.174;6.730;2024-02-14T14:26:07;15.98;;;8.45;;
56541;SDS011;42438;53.174;6.730;2024-02-14T14:28:38;17.60;;;9.05;;
56541;SDS011;42438;53.174;6.730;2024-02-14T14:31:09;16.77;;;9.30;;
56541;SDS011;42438;53.174;6.730;2024-02-14T14:33:42;17.20;;;9.35;;
56541;SDS011;42438;53.174;6.730;2024-02-14T14:36:13;17.88;;;9.65;;
56541;SDS011;42438;53.174;6.730;2024-02-14T14:38:44;17.63;;;9.25;;
56541;SDS011;42438;53.174;6.730;2024-02-14T14:41:14;17.73;;;9.93;;
56541;SDS011;42438;53.174;6.730;2024-02-14T14:43:45;16.58;;;9.30;;
56541;SDS011;42438;53.174;6.730;2024-02-14T14:46:19;22.23;;;9.75;;
56541;SDS011;42438;53.174;6.730;2024-02-14T14:48:49;16.08;;;8.43;;
56541;SDS011;42438;53.174;6.730;2024-02-14T14:51:20;14.75;;;8.23;;
56541;SDS011;42438;53.174;6.730;2024-02-14T14:53:51;15.70;;;7.65;;
56541;SDS011;42438;53.174;6.730;2024-02-14T14:56:21;12.50;;;7.38;;
56541;SDS011;42438;53.174;6.730;2024-02-14T14:58:55;12.18;;;6.45;;
56541;SDS011;42438;53.174;6.730;2024-02-14T15:01:32;12.75;;;7.32;;
56541;SDS011;42438;53.174;6.730;2024-02-14T15:04:06;12.50;;;7.10;;
56541;SDS011;42438;53.174;6.730;2024-02-14T15:06:37;10.15;;;6.25;;
56541;SDS011;42438;53.174;6.730;2024-02-14T15:09:07;11.52;;;6.40;;
56541;SDS011;42438;53.174;6.730;2024-02-14T15:11:38;11.18;;;6.20;;